Bridgend, United Kingdom
Current Conditions -  °F | °C
As of 2:50 PM on Sunday 21 Dec 2014 (Local Time) from EGDX Reporting Station
Broken Clouds Broken Clouds  
Wind Chill: 52°   Ceiling: 800
Heat Index: 52°   Visibility: 6mi
Dew Point: 50°   Wind: 22mph
Humidity: 94%   Direction: 260°W
Pressure: 30.24"   Gusts: NA
Location:  51.51°N, 3.58°W
Report Text: EGDX 211450Z AUTO 26019KT 9999 BKN008/// 11/10 Q1024 RERA
Loading
Personal Weather Stations






























Interactive Weather Map New forecast layout! Learn more

10-Day Weather Forecast

Advertisements
Track Severe Weather on mobile